createdAt,value
2018-07-03T00:00:47.536Z,18.68
2018-07-03T00:01:47.535Z,18.61
2018-07-03T00:02:47.415Z,18.57
2018-07-03T00:04:47.419Z,18.61
2018-07-03T00:05:47.298Z,18.61
2018-07-03T00:06:47.325Z,18.58
2018-07-03T00:07:47.294Z,18.58
2018-07-03T00:08:47.178Z,18.60
2018-07-03T00:09:47.178Z,18.55
2018-07-03T00:10:47.176Z,18.45
2018-07-03T00:11:47.056Z,18.55
2018-07-03T00:12:47.053Z,18.51
2018-07-03T00:13:47.056Z,18.43
2018-07-03T00:14:46.934Z,18.42
2018-07-03T00:15:46.933Z,18.39
2018-07-03T00:16:46.942Z,18.46
2018-07-03T00:17:46.813Z,18.36
2018-07-03T00:18:46.816Z,18.36
2018-07-03T00:19:46.887Z,18.36
2018-07-03T00:20:46.692Z,18.28
2018-07-03T00:21:46.696Z,18.26
2018-07-03T00:22:46.704Z,18.27
2018-07-03T00:23:46.571Z,18.26
2018-07-03T00:25:46.576Z,18.30
2018-07-03T00:26:46.450Z,18.16
2018-07-03T00:27:46.456Z,18.12
2018-07-03T00:28:46.456Z,18.26
2018-07-03T00:29:46.328Z,18.15
2018-07-03T00:30:46.329Z,18.18
2018-07-03T00:31:46.328Z,18.05
2018-07-03T00:32:46.210Z,18.11
2018-07-03T00:33:46.207Z,18.08
2018-07-03T00:34:46.210Z,18.12
2018-07-03T00:35:46.096Z,18.06
2018-07-03T00:36:46.091Z,18.02
2018-07-03T00:37:46.086Z,18.00
2018-07-03T00:38:45.966Z,18.06
2018-07-03T00:39:45.967Z,18.08
2018-07-03T00:40:45.967Z,17.95
2018-07-03T00:41:45.846Z,18.02
2018-07-03T00:42:45.844Z,17.97
2018-07-03T00:43:45.803Z,17.97
2018-07-03T00:44:45.725Z,17.98
2018-07-03T00:45:45.732Z,17.94
2018-07-03T00:46:45.683Z,17.90
2018-07-03T00:47:45.604Z,17.87
2018-07-03T00:48:45.607Z,17.98
2018-07-03T00:49:45.484Z,17.94
2018-07-03T00:50:45.484Z,17.90
2018-07-03T00:51:45.485Z,17.82
2018-07-03T00:52:45.365Z,17.84
2018-07-03T00:53:45.363Z,17.87
2018-07-03T00:54:45.365Z,17.78
2018-07-03T00:55:45.244Z,17.86
2018-07-03T00:56:45.247Z,17.79
2018-07-03T00:57:45.246Z,17.73
2018-07-03T00:58:45.122Z,17.72
2018-07-03T00:59:45.124Z,17.79
2018-07-03T01:00:45.121Z,17.72
2018-07-03T01:01:45.001Z,17.71
2018-07-03T01:02:45.004Z,17.72
2018-07-03T01:03:45.001Z,17.66
2018-07-03T01:04:44.882Z,17.73
2018-07-03T01:05:44.881Z,17.66
2018-07-03T01:06:44.883Z,17.69
2018-07-03T01:07:44.768Z,17.69
2018-07-03T01:08:44.759Z,17.60
2018-07-03T01:09:44.759Z,17.65
2018-07-03T01:10:44.639Z,17.57
2018-07-03T01:11:44.638Z,17.59
2018-07-03T01:12:44.641Z,17.54
2018-07-03T01:13:44.521Z,17.56
2018-07-03T01:14:44.522Z,17.59
2018-07-03T01:15:44.517Z,17.57
2018-07-03T01:16:44.399Z,17.44
2018-07-03T01:17:44.397Z,17.46
2018-07-03T01:18:44.398Z,17.44
2018-07-03T01:19:44.279Z,17.47
2018-07-03T01:20:44.277Z,17.42
2018-07-03T01:21:44.276Z,17.47
2018-07-03T01:22:44.157Z,17.52
2018-07-03T01:23:44.157Z,17.52
2018-07-03T01:24:44.155Z,17.47
2018-07-03T01:25:44.036Z,17.46
2018-07-03T01:26:44.038Z,17.42
2018-07-03T01:27:44.038Z,17.38
2018-07-03T01:28:43.915Z,17.31
2018-07-03T01:29:43.917Z,17.39
2018-07-03T01:30:43.915Z,17.35
2018-07-03T01:31:43.796Z,17.30
2018-07-03T01:32:43.794Z,17.27
2018-07-03T01:33:43.795Z,17.30
2018-07-03T01:34:43.675Z,17.24
2018-07-03T01:35:43.674Z,17.28
2018-07-03T01:36:43.674Z,17.38
2018-07-03T01:37:43.555Z,17.34
2018-07-03T01:38:43.553Z,17.35
2018-07-03T01:39:43.510Z,17.35
2018-07-03T01:40:43.432Z,17.31
2018-07-03T01:41:43.431Z,17.27
2018-07-03T01:42:43.390Z,17.34
2018-07-03T01:43:43.311Z,17.28
2018-07-03T01:44:43.315Z,17.28
2018-07-03T01:45:43.191Z,17.24
2018-07-03T01:46:43.191Z,17.31
2018-07-03T01:47:43.192Z,17.28
2018-07-03T01:48:43.071Z,17.23
2018-07-03T01:49:43.070Z,17.24
2018-07-03T01:50:43.070Z,17.23
2018-07-03T01:51:42.953Z,17.20
2018-07-03T01:52:42.949Z,17.23
2018-07-03T01:53:42.951Z,17.17
2018-07-03T01:54:42.829Z,17.13
2018-07-03T01:55:42.831Z,17.19
2018-07-03T01:56:42.829Z,17.10
2018-07-03T01:57:42.711Z,17.10
2018-07-03T01:58:42.709Z,17.13
2018-07-03T01:59:42.706Z,17.09
2018-07-03T02:00:42.589Z,17.04
2018-07-03T02:01:42.592Z,17.04
2018-07-03T02:02:42.587Z,17.14
2018-07-03T02:03:42.466Z,17.09
2018-07-03T02:04:42.468Z,17.04
2018-07-03T02:05:42.473Z,17.01
2018-07-03T02:06:42.346Z,16.98
2018-07-03T02:07:42.348Z,17.04
2018-07-03T02:08:42.346Z,17.01
2018-07-03T02:09:42.226Z,17.07
2018-07-03T02:10:42.227Z,17.02
2018-07-03T02:11:42.232Z,16.92
2018-07-03T02:12:42.106Z,16.91
2018-07-03T02:13:42.106Z,16.89
2018-07-03T02:14:42.107Z,16.87
2018-07-03T02:15:41.986Z,16.89
2018-07-03T02:16:41.990Z,16.92
2018-07-03T02:17:41.982Z,16.92
2018-07-03T02:18:41.864Z,16.97
2018-07-03T02:19:41.867Z,16.87
2018-07-03T02:20:41.827Z,16.84
2018-07-03T02:21:41.744Z,16.84
2018-07-03T02:22:41.745Z,16.86
2018-07-03T02:23:41.622Z,16.89
2018-07-03T02:24:41.623Z,16.87
2018-07-03T02:25:41.625Z,16.79
2018-07-03T02:26:41.503Z,16.79
2018-07-03T02:27:41.503Z,16.84
2018-07-03T02:28:41.506Z,16.84
2018-07-03T02:29:41.381Z,16.89
2018-07-03T02:30:41.384Z,16.83
2018-07-03T02:31:41.383Z,16.87
2018-07-03T02:32:41.261Z,16.87
2018-07-03T02:33:41.263Z,16.80
2018-07-03T02:34:41.262Z,16.82
2018-07-03T02:35:41.140Z,16.84
2018-07-03T02:36:41.141Z,16.80
2018-07-03T02:37:41.144Z,16.83
2018-07-03T02:38:41.019Z,16.74
2018-07-03T02:39:41.023Z,16.77
2018-07-03T02:40:41.023Z,16.79
2018-07-03T02:41:40.899Z,16.77
2018-07-03T02:42:40.900Z,16.79
2018-07-03T02:43:40.898Z,16.77
2018-07-03T02:44:40.778Z,16.79
2018-07-03T02:45:40.778Z,16.73
2018-07-03T02:46:40.778Z,16.80
2018-07-03T02:47:40.657Z,16.72
2018-07-03T02:48:40.660Z,16.72
2018-07-03T02:49:40.660Z,16.69
2018-07-03T02:50:40.544Z,16.76
2018-07-03T02:51:40.538Z,16.68
2018-07-03T02:52:40.495Z,16.77
2018-07-03T02:53:40.417Z,16.69
2018-07-03T02:54:40.416Z,16.69
2018-07-03T02:55:40.299Z,16.69
2018-07-03T02:56:40.296Z,16.68
2018-07-03T02:57:40.299Z,16.66
2018-07-03T02:58:40.175Z,16.58
2018-07-03T02:59:40.177Z,16.58
2018-07-03T03:00:40.175Z,16.61
2018-07-03T03:01:40.055Z,16.57
2018-07-03T03:02:40.055Z,16.62
2018-07-03T03:03:40.055Z,16.59
2018-07-03T03:04:39.941Z,16.59
2018-07-03T03:05:39.936Z,16.58
2018-07-03T03:06:39.933Z,16.59
2018-07-03T03:07:39.813Z,16.61
2018-07-03T03:08:39.814Z,16.55
2018-07-03T03:09:39.813Z,16.57
2018-07-03T03:10:39.692Z,16.54
2018-07-03T03:11:39.694Z,16.46
2018-07-03T03:12:39.693Z,16.54
2018-07-03T03:13:39.580Z,16.51
2018-07-03T03:14:39.571Z,16.44
2018-07-03T03:15:39.580Z,16.44
2018-07-03T03:16:39.451Z,16.44
2018-07-03T03:17:39.455Z,16.39
2018-07-03T03:18:39.451Z,16.41
2018-07-03T03:19:39.333Z,16.44
2018-07-03T03:20:39.329Z,16.34
2018-07-03T03:21:39.330Z,16.39
2018-07-03T03:22:39.212Z,16.43
2018-07-03T03:23:39.212Z,16.32
2018-07-03T03:24:39.175Z,16.39
2018-07-03T03:25:39.093Z,16.31
2018-07-03T03:26:39.094Z,16.39
2018-07-03T03:27:38.970Z,16.36
2018-07-03T03:28:38.973Z,16.34
2018-07-03T03:29:38.969Z,16.32
2018-07-03T03:30:38.852Z,16.26
2018-07-03T03:31:38.853Z,16.18
2018-07-03T03:32:38.855Z,16.26
2018-07-03T03:33:38.727Z,16.28
2018-07-03T03:34:38.729Z,16.37
2018-07-03T03:35:38.728Z,16.28
2018-07-03T03:36:38.609Z,16.22
2018-07-03T03:37:38.609Z,16.22
2018-07-03T03:38:38.619Z,16.16
2018-07-03T03:39:38.489Z,16.25
2018-07-03T03:40:38.487Z,16.17
2018-07-03T03:41:38.486Z,16.22
2018-07-03T03:42:38.365Z,16.21
2018-07-03T03:43:38.365Z,16.10
2018-07-03T03:44:38.373Z,16.17
2018-07-03T03:45:38.252Z,16.13
2018-07-03T03:46:38.246Z,16.18
2018-07-03T03:47:38.248Z,16.10
2018-07-03T03:48:38.124Z,16.13
2018-07-03T03:49:38.126Z,16.18
2018-07-03T03:50:38.121Z,16.13
2018-07-03T03:51:38.004Z,16.28
2018-07-03T03:52:38.004Z,16.24
2018-07-03T03:53:37.882Z,16.22
2018-07-03T03:54:37.887Z,16.18
2018-07-03T03:55:37.883Z,16.17
2018-07-03T03:56:37.767Z,16.17
2018-07-03T03:57:37.767Z,16.12
2018-07-03T03:58:37.761Z,16.16
2018-07-03T03:59:37.643Z,16.25
2018-07-03T04:00:37.643Z,16.10
2018-07-03T04:01:37.647Z,16.10
2018-07-03T04:02:37.524Z,16.13
2018-07-03T04:03:37.522Z,16.13
2018-07-03T04:04:37.520Z,16.17
2018-07-03T04:05:37.402Z,16.17
2018-07-03T04:06:37.401Z,16.24
2018-07-03T04:07:37.406Z,16.12
2018-07-03T04:08:37.280Z,16.26
2018-07-03T04:09:37.279Z,16.25
2018-07-03T04:10:37.280Z,16.28
2018-07-03T04:11:37.159Z,16.29
2018-07-03T04:12:37.159Z,16.26
2018-07-03T04:13:37.161Z,16.26
2018-07-03T04:14:37.043Z,16.24
2018-07-03T04:15:37.043Z,16.18
2018-07-03T04:16:37.039Z,16.25
2018-07-03T04:17:36.920Z,16.34
2018-07-03T04:18:36.919Z,16.29
2018-07-03T04:19:36.876Z,16.36
2018-07-03T04:20:36.797Z,16.36
2018-07-03T04:21:36.803Z,16.32
2018-07-03T04:22:36.680Z,16.26
2018-07-03T04:23:36.678Z,16.39
2018-07-03T04:24:36.676Z,16.36
2018-07-03T04:25:36.557Z,16.31
2018-07-03T04:26:36.558Z,16.41
2018-07-03T04:27:36.556Z,16.37
2018-07-03T04:28:36.438Z,16.34
2018-07-03T04:29:36.436Z,16.36
2018-07-03T04:30:36.436Z,16.43
2018-07-03T04:31:36.314Z,16.36
2018-07-03T04:32:36.313Z,16.41
2018-07-03T04:33:36.314Z,16.41
2018-07-03T04:34:36.196Z,16.40
2018-07-03T04:35:36.194Z,16.40
2018-07-03T04:36:36.196Z,16.43
2018-07-03T04:37:36.073Z,16.54
2018-07-03T04:38:36.075Z,16.44
2018-07-03T04:39:36.073Z,16.47
2018-07-03T04:40:35.953Z,16.47
2018-07-03T04:41:35.956Z,16.49
2018-07-03T04:42:35.953Z,16.46
2018-07-03T04:43:35.841Z,16.54
2018-07-03T04:44:35.839Z,16.55
2018-07-03T04:45:35.790Z,16.55
2018-07-03T04:46:35.715Z,16.59
2018-07-03T04:47:35.710Z,16.59
2018-07-03T04:48:35.594Z,16.61
2018-07-03T04:49:35.598Z,16.61
2018-07-03T04:50:35.593Z,16.64
2018-07-03T04:51:35.469Z,16.61
2018-07-03T04:52:35.477Z,16.68
2018-07-03T04:53:35.471Z,16.69
2018-07-03T04:54:35.350Z,16.72
2018-07-03T04:55:35.350Z,16.69
2018-07-03T04:56:35.349Z,16.73
2018-07-03T04:57:35.236Z,16.77
2018-07-03T04:58:35.230Z,16.76
2018-07-03T04:59:35.228Z,16.74
2018-07-03T05:00:35.114Z,16.76
2018-07-03T05:01:35.111Z,16.80
2018-07-03T05:02:35.115Z,16.83
2018-07-03T05:03:34.991Z,16.89
2018-07-03T05:04:34.993Z,16.86
2018-07-03T05:05:34.987Z,16.89
2018-07-03T05:06:34.866Z,16.87
2018-07-03T05:07:34.866Z,16.94
2018-07-03T05:08:34.870Z,16.95
2018-07-03T05:09:34.747Z,16.84
2018-07-03T05:10:34.745Z,16.92
2018-07-03T05:11:34.746Z,16.87
2018-07-03T05:12:34.627Z,17.02
2018-07-03T05:13:34.626Z,16.98
2018-07-03T05:14:34.583Z,17.10
2018-07-03T05:15:34.504Z,17.05
2018-07-03T05:16:34.508Z,17.07
2018-07-03T05:17:34.401Z,17.09
2018-07-03T05:18:34.385Z,17.14
2018-07-03T05:19:34.387Z,17.17
2018-07-03T05:20:34.264Z,17.13
2018-07-03T05:21:34.266Z,17.22
2018-07-03T05:22:34.263Z,17.27
2018-07-03T05:23:34.142Z,17.23
2018-07-03T05:24:34.147Z,17.27
2018-07-03T05:25:34.144Z,17.30
2018-07-03T05:26:34.023Z,17.22
2018-07-03T05:27:34.023Z,17.32
2018-07-03T05:28:34.023Z,17.31
2018-07-03T05:29:33.906Z,17.31
2018-07-03T05:30:33.902Z,17.27
2018-07-03T05:31:33.917Z,17.31
2018-07-03T05:32:33.781Z,17.41
2018-07-03T05:33:33.781Z,17.44
2018-07-03T05:34:33.784Z,17.42
2018-07-03T05:35:33.659Z,17.49
2018-07-03T05:36:33.659Z,17.52
2018-07-03T05:37:33.664Z,17.46
2018-07-03T05:38:33.540Z,17.59
2018-07-03T05:39:33.539Z,17.56
2018-07-03T05:40:33.545Z,17.54
2018-07-03T05:41:33.420Z,17.71
2018-07-03T05:42:33.420Z,17.57
2018-07-03T05:43:33.421Z,17.63
2018-07-03T05:44:33.312Z,17.66
2018-07-03T05:45:33.298Z,17.66
2018-07-03T05:46:33.298Z,17.72
2018-07-03T05:47:33.181Z,17.75
2018-07-03T05:48:33.178Z,17.73
2018-07-03T05:49:33.140Z,17.82
2018-07-03T05:50:33.060Z,17.82
2018-07-03T05:51:33.060Z,17.87
2018-07-03T05:52:33.015Z,17.93
2018-07-03T05:53:32.939Z,17.93
2018-07-03T05:54:32.942Z,18.02
2018-07-03T05:55:32.823Z,17.93
2018-07-03T05:56:32.926Z,17.97
2018-07-03T05:57:32.819Z,18.08
2018-07-03T05:58:32.698Z,18.02
2018-07-03T05:59:32.696Z,18.02
2018-07-03T06:00:32.698Z,18.08
2018-07-03T06:01:32.575Z,18.15
2018-07-03T06:02:32.575Z,18.18
2018-07-03T06:03:32.582Z,18.15
2018-07-03T06:04:32.456Z,18.28
2018-07-03T06:05:32.455Z,18.27
2018-07-03T06:06:32.455Z,18.24
2018-07-03T06:07:32.333Z,18.34
2018-07-03T06:08:32.333Z,18.41
2018-07-03T06:09:32.389Z,18.43
2018-07-03T06:10:32.215Z,18.45
2018-07-03T06:11:32.216Z,18.42
2018-07-03T06:12:32.212Z,18.46
2018-07-03T06:13:32.092Z,18.53
2018-07-03T06:14:32.094Z,18.55
2018-07-03T06:15:32.095Z,18.53
2018-07-03T06:16:31.996Z,18.60
2018-07-03T06:17:31.975Z,18.58
2018-07-03T06:18:31.972Z,18.70
2018-07-03T06:19:31.852Z,18.66
2018-07-03T06:20:31.852Z,18.71
2018-07-03T06:21:31.851Z,18.79
2018-07-03T06:22:31.736Z,18.83
2018-07-03T06:23:31.734Z,18.79
2018-07-03T06:24:31.730Z,18.91
2018-07-03T06:25:31.609Z,18.89
2018-07-03T06:26:31.611Z,18.96
2018-07-03T06:27:31.609Z,19.01
2018-07-03T06:28:31.491Z,19.01
2018-07-03T06:29:31.489Z,18.98
2018-07-03T06:30:31.493Z,19.07
2018-07-03T06:31:31.370Z,19.07
2018-07-03T06:32:31.368Z,19.11
2018-07-03T06:33:31.369Z,19.15
2018-07-03T06:34:31.248Z,19.29
2018-07-03T06:35:31.248Z,19.22
2018-07-03T06:36:31.247Z,19.35
2018-07-03T06:37:31.157Z,19.32
2018-07-03T06:38:31.127Z,19.42
2018-07-03T06:39:31.131Z,19.39
2018-07-03T06:40:31.007Z,19.47
2018-07-03T06:41:31.008Z,19.53
2018-07-03T06:42:31.005Z,19.56
2018-07-03T06:43:30.885Z,19.55
2018-07-03T06:44:30.886Z,19.72
2018-07-03T06:45:30.885Z,19.71
2018-07-03T06:46:30.769Z,19.67
2018-07-03T06:47:30.764Z,19.72
2018-07-03T06:48:30.764Z,19.78
2018-07-03T06:49:30.646Z,19.85
2018-07-03T06:50:30.646Z,19.93
2018-07-03T06:51:30.643Z,19.92
2018-07-03T06:52:30.522Z,19.97
2018-07-03T06:53:30.719Z,20.02
2018-07-03T06:54:30.530Z,20.08
2018-07-03T06:55:30.403Z,20.17
2018-07-03T06:56:30.401Z,20.18
2018-07-03T06:57:30.406Z,20.24
2018-07-03T06:58:30.287Z,20.30
2018-07-03T06:59:30.286Z,20.37
2018-07-03T07:00:30.292Z,20.30
2018-07-03T07:01:30.184Z,20.34
2018-07-03T07:02:30.166Z,20.48
2018-07-03T07:03:30.161Z,20.44
2018-07-03T07:04:30.043Z,20.44
2018-07-03T07:05:30.041Z,20.55
2018-07-03T07:06:30.040Z,20.58
2018-07-03T07:07:29.922Z,20.56
2018-07-03T07:08:29.950Z,20.52
2018-07-03T07:09:29.983Z,20.68
2018-07-03T07:10:29.801Z,20.70
2018-07-03T07:11:29.798Z,20.77
2018-07-03T07:12:29.798Z,20.78
2018-07-03T07:13:29.682Z,20.86
2018-07-03T07:14:29.679Z,20.83
2018-07-03T07:15:29.679Z,20.86
2018-07-03T07:16:29.557Z,20.98
2018-07-03T07:17:29.557Z,20.95
2018-07-03T07:18:29.557Z,21.04
2018-07-03T07:19:29.436Z,21.14
2018-07-03T07:20:29.439Z,21.10
2018-07-03T07:21:29.439Z,21.17
2018-07-03T07:22:29.317Z,21.29
2018-07-03T07:23:29.317Z,21.28
2018-07-03T07:24:29.315Z,21.37
2018-07-03T07:25:29.196Z,21.40
2018-07-03T07:26:29.196Z,21.38
2018-07-03T07:27:29.197Z,21.53
2018-07-03T07:28:29.074Z,21.53
2018-07-03T07:29:29.076Z,21.59
2018-07-03T07:30:29.089Z,21.63
2018-07-03T07:31:28.957Z,21.68
2018-07-03T07:32:28.958Z,21.66
2018-07-03T07:33:28.954Z,21.78
2018-07-03T07:34:28.834Z,21.83
2018-07-03T07:35:28.837Z,21.96
2018-07-03T07:36:28.834Z,21.99
2018-07-03T07:37:28.712Z,21.96
2018-07-03T07:38:28.711Z,22.08
2018-07-03T07:39:28.714Z,22.04
2018-07-03T07:40:28.591Z,22.08
2018-07-03T07:41:28.597Z,22.23
2018-07-03T07:42:28.594Z,22.19
2018-07-03T07:43:28.470Z,22.28
2018-07-03T07:44:28.473Z,22.34
2018-07-03T07:45:28.470Z,22.31
2018-07-03T07:46:28.467Z,22.43
2018-07-03T07:47:28.349Z,22.49
2018-07-03T07:48:28.355Z,22.51
2018-07-03T07:49:28.352Z,22.58
2018-07-03T07:50:28.229Z,22.73
2018-07-03T07:51:28.229Z,22.61
2018-07-03T07:52:28.228Z,22.77
2018-07-03T07:53:28.115Z,22.80
2018-07-03T07:54:28.109Z,22.95
2018-07-03T07:55:28.108Z,23.06
2018-07-03T07:56:28.012Z,23.04
2018-07-03T07:57:27.987Z,23.06
2018-07-03T07:58:27.990Z,23.06
2018-07-03T07:59:27.872Z,23.10
2018-07-03T08:00:27.867Z,23.28
2018-07-03T08:01:27.870Z,23.26
2018-07-03T08:02:27.749Z,23.37
2018-07-03T08:03:27.750Z,23.37
2018-07-03T08:04:27.745Z,23.47
2018-07-03T08:05:27.625Z,23.55
2018-07-03T08:06:27.636Z,23.59
2018-07-03T08:07:27.633Z,23.66
2018-07-03T08:08:27.503Z,23.71
2018-07-03T08:09:27.508Z,23.67
2018-07-03T08:10:27.503Z,23.88
2018-07-03T08:11:27.387Z,23.81
2018-07-03T08:12:27.384Z,23.89
2018-07-03T08:13:27.385Z,23.94
2018-07-03T08:14:27.385Z,24.01
2018-07-03T08:15:27.263Z,24.10
2018-07-03T08:16:27.264Z,24.11
2018-07-03T08:17:27.265Z,24.19
2018-07-03T08:18:27.148Z,24.26
2018-07-03T08:19:27.140Z,24.25
2018-07-03T08:20:27.141Z,24.29
2018-07-03T08:21:27.027Z,24.38
2018-07-03T08:22:27.025Z,24.38
2018-07-03T08:23:27.020Z,24.50
2018-07-03T08:24:26.902Z,24.55
2018-07-03T08:25:26.904Z,24.69
2018-07-03T08:26:26.901Z,24.68
2018-07-03T08:27:26.783Z,24.78
2018-07-03T08:28:26.778Z,24.84
2018-07-03T08:29:26.780Z,24.89
2018-07-03T08:30:26.737Z,24.94
2018-07-03T08:31:26.658Z,25.06
2018-07-03T08:32:26.661Z,25.07
2018-07-03T08:33:26.659Z,25.19
2018-07-03T08:34:26.542Z,25.18
2018-07-03T08:35:26.539Z,25.30
2018-07-03T08:36:26.538Z,25.46
2018-07-03T08:37:26.420Z,25.37
2018-07-03T08:38:26.417Z,25.56
2018-07-03T08:39:26.420Z,25.59
2018-07-03T08:40:26.297Z,25.59
2018-07-03T08:41:26.296Z,25.68
2018-07-03T08:42:26.295Z,25.73
2018-07-03T08:43:26.191Z,25.76
2018-07-03T08:44:26.177Z,25.76
2018-07-03T08:45:26.181Z,25.86
2018-07-03T08:46:26.175Z,25.89
2018-07-03T08:47:26.061Z,26.03
2018-07-03T08:48:26.059Z,26.13
2018-07-03T08:49:26.053Z,26.10
2018-07-03T08:50:25.934Z,26.24
2018-07-03T08:51:25.933Z,26.37
2018-07-03T08:52:25.934Z,26.49
2018-07-03T08:53:25.814Z,26.53
2018-07-03T08:54:25.816Z,26.55
2018-07-03T08:55:25.814Z,26.64
2018-07-03T08:56:25.696Z,26.78
2018-07-03T08:57:25.695Z,26.85
2018-07-03T08:58:25.692Z,26.91
2018-07-03T08:59:25.692Z,26.97
2018-07-03T09:00:25.572Z,27.04
2018-07-03T09:01:25.570Z,27.04
2018-07-03T09:02:25.573Z,27.18
2018-07-03T09:03:25.452Z,27.29
2018-07-03T09:04:25.450Z,27.34
2018-07-03T09:05:25.449Z,27.33
2018-07-03T09:06:25.331Z,27.44
2018-07-03T09:07:25.330Z,27.47
2018-07-03T09:08:25.334Z,27.50
2018-07-03T09:09:25.293Z,27.64
2018-07-03T09:10:25.211Z,27.73
2018-07-03T09:11:25.259Z,27.82
2018-07-03T09:12:25.206Z,27.91
2018-07-03T09:13:25.088Z,27.93
2018-07-03T09:14:25.089Z,27.90
2018-07-03T09:15:25.091Z,27.86
2018-07-03T09:16:24.969Z,27.93
2018-07-03T09:17:24.966Z,27.95
2018-07-03T09:18:24.967Z,27.90
2018-07-03T09:19:24.932Z,27.97
2018-07-03T09:20:24.846Z,27.85
2018-07-03T09:21:24.848Z,27.98
2018-07-03T09:22:24.849Z,28.03
2018-07-03T09:23:24.728Z,28.04
2018-07-03T09:24:24.729Z,28.09
2018-07-03T09:25:24.724Z,28.18
2018-07-03T09:26:24.603Z,28.23
2018-07-03T09:27:24.606Z,28.25
2018-07-03T09:28:24.606Z,28.38
2018-07-03T09:29:24.601Z,28.38
2018-07-03T09:30:24.519Z,28.55
2018-07-03T09:31:24.483Z,28.57
2018-07-03T09:32:24.483Z,28.55
2018-07-03T09:33:24.369Z,28.65
2018-07-03T09:34:24.362Z,28.71
2018-07-03T09:35:24.362Z,28.71
2018-07-03T09:36:24.297Z,28.80
2018-07-03T09:37:24.241Z,28.84
2018-07-03T09:38:24.243Z,29.02
2018-07-03T09:39:24.241Z,29.07
2018-07-03T09:40:24.121Z,29.12
2018-07-03T09:41:24.124Z,29.16
2018-07-03T09:42:24.127Z,29.28
2018-07-03T09:43:24.001Z,29.27
2018-07-03T09:44:24.003Z,29.25
2018-07-03T09:45:24.003Z,29.34
2018-07-03T09:46:23.996Z,29.34
2018-07-03T09:47:23.882Z,29.49
2018-07-03T09:48:23.880Z,29.52
2018-07-03T09:49:23.883Z,29.65
2018-07-03T09:50:23.757Z,29.74
2018-07-03T09:51:23.758Z,29.80
2018-07-03T09:52:23.758Z,29.89
2018-07-03T09:53:23.637Z,29.99
2018-07-03T09:54:23.638Z,29.98
2018-07-03T09:55:23.637Z,30.10
2018-07-03T09:56:23.641Z,30.13
2018-07-03T09:57:23.519Z,30.21
2018-07-03T09:58:23.519Z,30.26
2018-07-03T09:59:23.517Z,30.32
2018-07-03T10:00:23.396Z,30.31
2018-07-03T10:01:23.396Z,30.33
2018-07-03T10:02:23.397Z,30.46
2018-07-03T10:03:23.396Z,30.52
2018-07-03T10:04:23.275Z,30.54
2018-07-03T10:05:23.279Z,30.73
2018-07-03T10:06:23.274Z,30.80
2018-07-03T10:07:23.160Z,30.83
2018-07-03T10:08:23.231Z,30.91
2018-07-03T10:09:23.155Z,30.89
2018-07-03T10:10:23.156Z,31.07
2018-07-03T10:11:23.036Z,31.11
2018-07-03T10:12:23.034Z,31.14
2018-07-03T10:13:23.034Z,31.18
2018-07-03T10:14:22.915Z,31.20
2018-07-03T10:15:22.913Z,31.18
2018-07-03T10:16:22.913Z,31.28
2018-07-03T10:17:22.913Z,31.30
2018-07-03T10:18:22.790Z,31.28
2018-07-03T10:19:22.802Z,31.39
2018-07-03T10:20:22.791Z,31.39
2018-07-03T10:21:22.680Z,31.47
2018-07-03T10:22:22.670Z,31.48
2018-07-03T10:23:22.671Z,31.51
2018-07-03T10:24:22.679Z,31.55
2018-07-03T10:25:22.554Z,31.54
2018-07-03T10:26:22.551Z,31.62
2018-07-03T10:27:22.551Z,31.69
2018-07-03T10:28:22.443Z,31.57
2018-07-03T10:29:22.432Z,31.59
2018-07-03T10:30:22.429Z,31.67
2018-07-03T10:31:22.452Z,31.70
2018-07-03T10:32:22.308Z,31.74
2018-07-03T10:33:22.307Z,31.69
2018-07-03T10:34:22.312Z,31.69
2018-07-03T10:35:22.265Z,31.82
2018-07-03T10:36:22.186Z,31.87
2018-07-03T10:37:22.198Z,31.87
2018-07-03T10:38:22.190Z,31.87
2018-07-03T10:39:22.065Z,31.87
2018-07-03T10:40:22.070Z,31.92
2018-07-03T10:41:22.069Z,31.90
2018-07-03T10:42:22.066Z,31.97
2018-07-03T10:43:21.947Z,31.90
2018-07-03T10:44:21.951Z,31.82
2018-07-03T10:45:21.945Z,31.86
2018-07-03T10:46:21.829Z,31.98
2018-07-03T10:47:21.831Z,31.97
2018-07-03T10:48:21.827Z,32.07
2018-07-03T10:49:21.829Z,32.11
2018-07-03T10:50:21.704Z,32.24
2018-07-03T10:51:21.706Z,32.39
2018-07-03T10:52:21.705Z,32.44
2018-07-03T10:53:21.586Z,32.45
2018-07-03T10:54:21.589Z,32.51
2018-07-03T10:55:21.583Z,32.56
2018-07-03T10:56:21.582Z,32.68
2018-07-03T10:57:21.464Z,32.73
2018-07-03T10:58:21.464Z,32.72
2018-07-03T10:59:21.462Z,32.73
2018-07-03T11:00:21.461Z,32.66
2018-07-03T11:01:21.341Z,32.72
2018-07-03T11:02:21.341Z,32.71
2018-07-03T11:03:21.345Z,32.66
2018-07-03T11:04:21.337Z,32.76
2018-07-03T11:05:21.221Z,32.66
2018-07-03T11:06:21.219Z,32.73
2018-07-03T11:07:21.220Z,32.71
2018-07-03T11:08:21.182Z,32.73
2018-07-03T11:09:21.100Z,32.63
2018-07-03T11:10:21.109Z,32.67
2018-07-03T11:11:21.101Z,32.68
2018-07-03T11:12:20.991Z,32.59
2018-07-03T11:13:20.983Z,32.59
2018-07-03T11:14:20.980Z,32.76
2018-07-03T11:15:20.859Z,32.67
2018-07-03T11:16:20.861Z,32.73
2018-07-03T11:17:20.860Z,32.78
2018-07-03T11:18:20.860Z,32.82
2018-07-03T11:19:20.738Z,32.86
2018-07-03T11:20:20.738Z,32.90
2018-07-03T11:21:20.737Z,32.91
2018-07-03T11:22:20.747Z,32.90
2018-07-03T11:23:20.620Z,32.91
2018-07-03T11:24:20.618Z,32.93
2018-07-03T11:25:20.617Z,32.98
2018-07-03T11:26:20.503Z,32.98
2018-07-03T11:27:20.494Z,33.03
2018-07-03T11:28:20.500Z,33.04
2018-07-03T11:29:20.501Z,33.12
2018-07-03T11:30:20.377Z,33.17
2018-07-03T11:31:20.381Z,33.29
2018-07-03T11:32:20.373Z,33.40
2018-07-03T11:33:20.376Z,33.39
2018-07-03T11:34:20.258Z,33.39
2018-07-03T11:35:20.258Z,33.38
2018-07-03T11:36:20.261Z,33.28
2018-07-03T11:37:20.214Z,33.29
2018-07-03T11:38:20.134Z,33.20
2018-07-03T11:39:20.135Z,33.20
2018-07-03T11:40:20.132Z,33.20
2018-07-03T11:41:20.012Z,33.17
2018-07-03T11:42:20.013Z,33.31
2018-07-03T11:43:20.013Z,33.35
2018-07-03T11:44:20.010Z,33.45
2018-07-03T11:45:19.891Z,33.45
2018-07-03T11:46:19.890Z,33.44
2018-07-03T11:47:19.890Z,33.31
2018-07-03T11:48:19.847Z,33.36
2018-07-03T11:49:19.773Z,33.32
2018-07-03T11:50:19.774Z,33.38
2018-07-03T11:51:19.771Z,33.36
2018-07-03T11:52:19.654Z,33.36
2018-07-03T11:53:19.649Z,33.38
2018-07-03T11:54:19.647Z,33.50
2018-07-03T11:55:19.687Z,33.50
2018-07-03T11:56:19.528Z,33.57
2018-07-03T11:57:19.526Z,33.67
2018-07-03T11:58:19.528Z,33.75
2018-07-03T11:59:19.532Z,33.79
2018-07-03T12:00:19.407Z,33.87
2018-07-03T12:01:19.443Z,33.85
2018-07-03T12:02:19.407Z,33.79
2018-07-03T12:03:19.288Z,33.76
2018-07-03T12:04:19.286Z,33.57
2018-07-03T12:05:19.285Z,33.55
2018-07-03T12:06:19.285Z,33.50
2018-07-03T12:07:19.166Z,33.50
2018-07-03T12:08:19.164Z,33.55
2018-07-03T12:09:19.170Z,33.60
2018-07-03T12:10:19.166Z,33.87
2018-07-03T12:11:19.074Z,34.06
2018-07-03T12:12:19.047Z,34.21
2018-07-03T12:13:19.045Z,34.41
2018-07-03T12:14:19.011Z,34.40
2018-07-03T12:15:18.924Z,34.60
2018-07-03T12:16:18.928Z,34.65
2018-07-03T12:17:18.927Z,34.78
2018-07-03T12:18:18.803Z,34.93
2018-07-03T12:19:18.811Z,34.93
2018-07-03T12:20:18.835Z,35.03
2018-07-03T12:21:18.880Z,34.91
2018-07-03T12:22:18.762Z,34.89
2018-07-03T12:23:18.686Z,34.89
2018-07-03T12:24:18.767Z,34.82
2018-07-03T12:25:18.684Z,34.88
2018-07-03T12:26:18.565Z,35.03
2018-07-03T12:27:18.562Z,35.12
2018-07-03T12:28:18.561Z,35.10
2018-07-03T12:29:18.440Z,35.20
2018-07-03T12:30:18.440Z,35.13
2018-07-03T12:31:18.441Z,35.04
2018-07-03T12:32:18.441Z,35.01
2018-07-03T12:33:18.318Z,34.91
2018-07-03T12:34:18.363Z,34.82
2018-07-03T12:35:18.320Z,34.69
2018-07-03T12:36:18.318Z,34.47
2018-07-03T12:37:18.207Z,34.43
2018-07-03T12:38:18.201Z,34.32
2018-07-03T12:39:18.199Z,34.19
2018-07-03T12:40:18.202Z,34.11
2018-07-03T12:41:18.077Z,34.06
2018-07-03T12:42:18.080Z,34.04
2018-07-03T12:43:18.077Z,34.04
2018-07-03T12:44:18.076Z,34.14
2018-07-03T12:45:17.957Z,34.19
2018-07-03T12:46:17.957Z,34.31
2018-07-03T12:47:17.958Z,34.35
2018-07-03T12:48:17.914Z,34.41
2018-07-03T12:49:17.835Z,34.38
2018-07-03T12:50:17.835Z,34.40
2018-07-03T12:51:17.834Z,34.46
2018-07-03T12:52:17.715Z,34.28
2018-07-03T12:53:17.714Z,34.06
2018-07-03T12:54:17.715Z,33.89